sensor_id;sensor_type;location;lat;lon;timestamp;pressure;altitude;pressure_sealevel;temperature;humidity
10115;BME280;5097;43.260;27.812;2023-07-13T00:01:11;100199.69;;;23.59;92.73
10115;BME280;5097;43.260;27.812;2023-07-13T00:03:56;100198.34;;;23.71;92.93
10115;BME280;5097;43.260;27.812;2023-07-13T00:06:40;100165.56;;;23.41;94.51
10115;BME280;5097;43.260;27.812;2023-07-13T00:09:27;100186.47;;;23.48;96.31
10115;BME280;5097;43.260;27.812;2023-07-13T00:12:22;100184.88;;;23.20;98.71
10115;BME280;5097;43.260;27.812;2023-07-13T00:15:12;100156.81;;;22.70;100.00
10115;BME280;5097;43.260;27.812;2023-07-13T00:17:58;100158.00;;;23.02;100.00
10115;BME280;5097;43.260;27.812;2023-07-13T00:20:43;100176.69;;;23.38;99.16
10115;BME280;5097;43.260;27.812;2023-07-13T00:23:27;100169.78;;;23.44;97.39
10115;BME280;5097;43.260;27.812;2023-07-13T00:26:11;100165.09;;;23.46;97.36
10115;BME280;5097;43.260;27.812;2023-07-13T00:28:56;100165.94;;;23.55;97.25
10115;BME280;5097;43.260;27.812;2023-07-13T00:31:42;100169.81;;;23.52;96.76
10115;BME280;5097;43.260;27.812;2023-07-13T00:34:27;100161.22;;;23.57;97.46
10115;BME280;5097;43.260;27.812;2023-07-13T00:37:11;100135.59;;;23.36;97.78
10115;BME280;5097;43.260;27.812;2023-07-13T00:39:55;100157.53;;;23.66;97.27
10115;BME280;5097;43.260;27.812;2023-07-13T00:42:40;100156.34;;;23.52;98.71
10115;BME280;5097;43.260;27.812;2023-07-13T00:48:44;100142.34;;;23.40;99.56
10115;BME280;5097;43.260;27.812;2023-07-13T00:51:34;100145.69;;;23.51;98.12
10115;BME280;5097;43.260;27.812;2023-07-13T00:54:23;100142.34;;;23.57;98.47
10115;BME280;5097;43.260;27.812;2023-07-13T00:57:14;100134.53;;;23.29;99.72
10115;BME280;5097;43.260;27.812;2023-07-13T00:59:59;100137.94;;;23.31;100.00
10115;BME280;5097;43.260;27.812;2023-07-13T01:02:49;100122.03;;;23.20;100.00
10115;BME280;5097;43.260;27.812;2023-07-13T01:05:35;100129.66;;;23.24;100.00
10115;BME280;5097;43.260;27.812;2023-07-13T01:08:20;100102.13;;;23.13;100.00
10115;BME280;5097;43.260;27.812;2023-07-13T01:11:04;100135.72;;;23.26;99.72
10115;BME280;5097;43.260;27.812;2023-07-13T01:13:49;100107.53;;;23.13;100.00
10115;BME280;5097;43.260;27.812;2023-07-13T01:16:34;100123.28;;;23.42;99.50
10115;BME280;5097;43.260;27.812;2023-07-13T01:19:33;100125.47;;;23.47;99.30
10115;BME280;5097;43.260;27.812;2023-07-13T01:22:21;100119.03;;;23.23;100.00
10115;BME280;5097;43.260;27.812;2023-07-13T01:25:08;100101.59;;;23.01;100.00
10115;BME280;5097;43.260;27.812;2023-07-13T01:27:52;100105.53;;;23.15;100.00
10115;BME280;5097;43.260;27.812;2023-07-13T01:30:38;100113.53;;;22.98;100.00
10115;BME280;5097;43.260;27.812;2023-07-13T01:33:23;100106.78;;;22.94;100.00
10115;BME280;5097;43.260;27.812;2023-07-13T01:36:09;100107.13;;;22.99;100.00
10115;BME280;5097;43.260;27.812;2023-07-13T01:38:55;100103.72;;;22.89;100.00
10115;BME280;5097;43.260;27.812;2023-07-13T01:41:39;100105.06;;;22.85;100.00
10115;BME280;5097;43.260;27.812;2023-07-13T01:44:24;100076.78;;;22.89;100.00
10115;BME280;5097;43.260;27.812;2023-07-13T01:47:08;100091.94;;;22.90;100.00
10115;BME280;5097;43.260;27.812;2023-07-13T01:49:52;100087.88;;;22.77;100.00
10115;BME280;5097;43.260;27.812;2023-07-13T01:52:36;100095.25;;;22.75;100.00
10115;BME280;5097;43.260;27.812;2023-07-13T01:55:22;100090.84;;;22.66;100.00
10115;BME280;5097;43.260;27.812;2023-07-13T01:58:06;100068.94;;;22.61;100.00
10115;BME280;5097;43.260;27.812;2023-07-13T02:00:51;100095.25;;;22.75;100.00
10115;BME280;5097;43.260;27.812;2023-07-13T02:03:36;100096.88;;;22.60;100.00
10115;BME280;5097;43.260;27.812;2023-07-13T02:06:20;100094.28;;;22.50;100.00
10115;BME280;5097;43.260;27.812;2023-07-13T02:09:04;100009.41;;;22.03;100.00
10115;BME280;5097;43.260;27.812;2023-07-13T02:11:49;100074.38;;;22.17;100.00
10115;BME280;5097;43.260;27.812;2023-07-13T02:14:33;100097.69;;;22.34;100.00
10115;BME280;5097;43.260;27.812;2023-07-13T02:17:18;100093.97;;;22.27;100.00
10115;BME280;5097;43.260;27.812;2023-07-13T02:20:04;100093.41;;;22.41;100.00
10115;BME280;5097;43.260;27.812;2023-07-13T02:22:48;100099.97;;;22.39;100.00
10115;BME280;5097;43.260;27.812;2023-07-13T02:25:36;100090.44;;;22.26;100.00
10115;BME280;5097;43.260;27.812;2023-07-13T02:28:21;100084.56;;;22.31;100.00
10115;BME280;5097;43.260;27.812;2023-07-13T02:31:06;100085.47;;;22.14;100.00
10115;BME280;5097;43.260;27.812;2023-07-13T02:33:51;100071.75;;;21.99;100.00
10115;BME280;5097;43.260;27.812;2023-07-13T02:36:35;100086.50;;;22.21;100.00
10115;BME280;5097;43.260;27.812;2023-07-13T02:39:19;100098.78;;;22.41;100.00
10115;BME280;5097;43.260;27.812;2023-07-13T02:42:03;100077.19;;;22.33;100.00
10115;BME280;5097;43.260;27.812;2023-07-13T02:44:49;100094.94;;;22.44;100.00
10115;BME280;5097;43.260;27.812;2023-07-13T02:47:33;100088.66;;;22.35;100.00
10115;BME280;5097;43.260;27.812;2023-07-13T02:50:17;100097.81;;;22.24;100.00
10115;BME280;5097;43.260;27.812;2023-07-13T02:53:01;100091.06;;;22.20;100.00
10115;BME280;5097;43.260;27.812;2023-07-13T02:55:45;99975.97;;;21.35;100.00
10115;BME280;5097;43.260;27.812;2023-07-13T02:58:30;100090.31;;;22.10;100.00
10115;BME280;5097;43.260;27.812;2023-07-13T03:01:15;100092.22;;;22.18;100.00
10115;BME280;5097;43.260;27.812;2023-07-13T03:04:02;100098.69;;;22.25;100.00
10115;BME280;5097;43.260;27.812;2023-07-13T03:06:49;100058.44;;;22.23;100.00
10115;BME280;5097;43.260;27.812;2023-07-13T03:09:34;100091.28;;;22.53;100.00
10115;BME280;5097;43.260;27.812;2023-07-13T03:12:21;100088.06;;;22.50;100.00
10115;BME280;5097;43.260;27.812;2023-07-13T03:15:06;100083.72;;;22.57;100.00
10115;BME280;5097;43.260;27.812;2023-07-13T03:17:55;100092.41;;;22.77;100.00
10115;BME280;5097;43.260;27.812;2023-07-13T03:20:39;100085.84;;;22.80;100.00
10115;BME280;5097;43.260;27.812;2023-07-13T03:23:24;100074.50;;;22.68;100.00
10115;BME280;5097;43.260;27.812;2023-07-13T03:26:10;100091.94;;;22.82;100.00
10115;BME280;5097;43.260;27.812;2023-07-13T03:28:56;100089.22;;;22.73;99.71
10115;BME280;5097;43.260;27.812;2023-07-13T03:31:40;100080.16;;;22.83;99.37
10115;BME280;5097;43.260;27.812;2023-07-13T03:34:25;100082.31;;;23.14;97.96
10115;BME280;5097;43.260;27.812;2023-07-13T03:37:09;100080.44;;;23.14;98.00
10115;BME280;5097;43.260;27.812;2023-07-13T03:39:53;100095.78;;;23.22;97.79
10115;BME280;5097;43.260;27.812;2023-07-13T03:42:37;100087.91;;;23.37;95.92
10115;BME280;5097;43.260;27.812;2023-07-13T03:45:22;100075.06;;;23.22;96.57
10115;BME280;5097;43.260;27.812;2023-07-13T03:48:06;100098.69;;;23.62;96.06
10115;BME280;5097;43.260;27.812;2023-07-13T03:50:52;100097.03;;;23.69;95.70
10115;BME280;5097;43.260;27.812;2023-07-13T03:53:38;100073.97;;;23.99;94.56
10115;BME280;5097;43.260;27.812;2023-07-13T03:56:23;100105.63;;;24.30;92.89
10115;BME280;5097;43.260;27.812;2023-07-13T03:59:07;100099.69;;;24.43;92.81
10115;BME280;5097;43.260;27.812;2023-07-13T04:01:51;100102.53;;;24.66;91.54
10115;BME280;5097;43.260;27.812;2023-07-13T04:04:35;100106.09;;;24.98;90.71
10115;BME280;5097;43.260;27.812;2023-07-13T04:07:24;100105.84;;;25.16;88.61
10115;BME280;5097;43.260;27.812;2023-07-13T04:10:09;100104.66;;;25.19;89.03
10115;BME280;5097;43.260;27.812;2023-07-13T04:12:53;100101.88;;;25.35;87.43
10115;BME280;5097;43.260;27.812;2023-07-13T04:15:38;100102.78;;;25.51;88.13
10115;BME280;5097;43.260;27.812;2023-07-13T04:18:22;100103.88;;;25.65;87.29
10115;BME280;5097;43.260;27.812;2023-07-13T04:21:07;100093.41;;;25.62;86.52
10115;BME280;5097;43.260;27.812;2023-07-13T04:23:52;100100.56;;;25.77;85.88
10115;BME280;5097;43.260;27.812;2023-07-13T04:26:36;100011.19;;;25.48;85.26
10115;BME280;5097;43.260;27.812;2023-07-13T04:29:21;100096.25;;;26.06;84.49
10115;BME280;5097;43.260;27.812;2023-07-13T04:32:05;100093.97;;;26.18;82.44
10115;BME280;5097;43.260;27.812;2023-07-13T04:34:49;100103.06;;;26.40;82.62
10115;BME280;5097;43.260;27.812;2023-07-13T04:37:35;100111.47;;;26.46;81.18
10115;BME280;5097;43.260;27.812;2023-07-13T04:40:21;100112.56;;;26.66;80.82
10115;BME280;5097;43.260;27.812;2023-07-13T04:43:05;100071.66;;;26.61;78.66
10115;BME280;5097;43.260;27.812;2023-07-13T04:45:50;100123.22;;;27.13;77.79
10115;BME280;5097;43.260;27.812;2023-07-13T04:48:34;100120.00;;;27.24;76.11
10115;BME280;5097;43.260;27.812;2023-07-13T04:51:18;100123.38;;;27.26;75.03
10115;BME280;5097;43.260;27.812;2023-07-13T04:54:02;100117.81;;;27.49;74.54
10115;BME280;5097;43.260;27.812;2023-07-13T04:56:49;100118.69;;;27.56;72.54
10115;BME280;5097;43.260;27.812;2023-07-13T04:59:33;100104.72;;;27.38;72.20
10115;BME280;5097;43.260;27.812;2023-07-13T05:02:17;100119.22;;;27.67;72.10
10115;BME280;5097;43.260;27.812;2023-07-13T05:05:03;100119.69;;;27.70;72.17
10115;BME280;5097;43.260;27.812;2023-07-13T05:07:47;100127.97;;;27.84;73.59
10115;BME280;5097;43.260;27.812;2023-07-13T05:10:31;100124.06;;;27.71;71.60
10115;BME280;5097;43.260;27.812;2023-07-13T05:13:17;100125.19;;;27.77;75.19
10115;BME280;5097;43.260;27.812;2023-07-13T05:16:02;100121.59;;;27.98;73.26
10115;BME280;5097;43.260;27.812;2023-07-13T05:18:46;100126.69;;;28.01;73.11
10115;BME280;5097;43.260;27.812;2023-07-13T05:21:30;100127.00;;;27.98;74.41
10115;BME280;5097;43.260;27.812;2023-07-13T05:24:14;100111.50;;;28.14;72.33
10115;BME280;5097;43.260;27.812;2023-07-13T05:27:07;100113.09;;;27.80;72.74
10115;BME280;5097;43.260;27.812;2023-07-13T05:29:52;100102.25;;;28.01;72.49
10115;BME280;5097;43.260;27.812;2023-07-13T05:32:36;100130.78;;;27.97;71.16
10115;BME280;5097;43.260;27.812;2023-07-13T05:35:20;100130.84;;;27.82;72.82
10115;BME280;5097;43.260;27.812;2023-07-13T05:38:04;100129.25;;;28.09;72.58
10115;BME280;5097;43.260;27.812;2023-07-13T05:40:49;100138.81;;;28.05;70.82
10115;BME280;5097;43.260;27.812;2023-07-13T05:43:34;100139.84;;;28.04;71.07
10115;BME280;5097;43.260;27.812;2023-07-13T05:46:19;100149.78;;;28.19;69.91
10115;BME280;5097;43.260;27.812;2023-07-13T05:49:03;100146.53;;;28.30;68.81
10115;BME280;5097;43.260;27.812;2023-07-13T05:51:47;100152.97;;;28.29;68.53
10115;BME280;5097;43.260;27.812;2023-07-13T05:54:31;100150.50;;;28.34;69.50
10115;BME280;5097;43.260;27.812;2023-07-13T05:57:15;100155.06;;;28.27;68.74
10115;BME280;5097;43.260;27.812;2023-07-13T05:59:59;100152.50;;;28.47;69.76
10115;BME280;5097;43.260;27.812;2023-07-13T06:02:55;100137.09;;;28.61;67.96
10115;BME280;5097;43.260;27.812;2023-07-13T06:05:41;100136.56;;;28.66;68.21
10115;BME280;5097;43.260;27.812;2023-07-13T06:08:25;100153.66;;;29.01;66.30
10115;BME280;5097;43.260;27.812;2023-07-13T06:11:13;100149.44;;;28.92;65.89
10115;BME280;5097;43.260;27.812;2023-07-13T06:13:57;100133.22;;;28.70;66.17
10115;BME280;5097;43.260;27.812;2023-07-13T06:16:41;100149.78;;;28.75;66.52
10115;BME280;5097;43.260;27.812;2023-07-13T06:19:28;100151.13;;;28.93;66.19
10115;BME280;5097;43.260;27.812;2023-07-13T06:22:12;100145.19;;;29.24;65.40
10115;BME280;5097;43.260;27.812;2023-07-13T06:24:55;100150.94;;;29.36;64.63
10115;BME280;5097;43.260;27.812;2023-07-13T06:27:39;100149.13;;;29.15;64.96
10115;BME280;5097;43.260;27.812;2023-07-13T06:30:23;100145.03;;;29.33;65.39
10115;BME280;5097;43.260;27.812;2023-07-13T06:33:07;100148.84;;;29.52;64.45
10115;BME280;5097;43.260;27.812;2023-07-13T06:35:53;100140.84;;;29.30;63.85
10115;BME280;5097;43.260;27.812;2023-07-13T06:38:38;100139.63;;;29.39;64.33
10115;BME280;5097;43.260;27.812;2023-07-13T06:41:22;100140.50;;;29.67;64.02
10115;BME280;5097;43.260;27.812;2023-07-13T06:44:08;100132.56;;;29.65;63.91
10115;BME280;5097;43.260;27.812;2023-07-13T06:46:52;100147.69;;;29.88;63.99
10115;BME280;5097;43.260;27.812;2023-07-13T06:49:36;100133.41;;;29.79;63.45
10115;BME280;5097;43.260;27.812;2023-07-13T06:52:21;100123.19;;;29.88;63.13
10115;BME280;5097;43.260;27.812;2023-07-13T06:55:06;100135.50;;;29.77;63.66
10115;BME280;5097;43.260;27.812;2023-07-13T06:57:50;100130.72;;;29.99;63.29
10115;BME280;5097;43.260;27.812;2023-07-13T07:00:34;100129.28;;;29.90;62.63
10115;BME280;5097;43.260;27.812;2023-07-13T07:03:18;100119.63;;;30.28;63.76
10115;BME280;5097;43.260;27.812;2023-07-13T07:06:10;100129.03;;;30.38;63.10
10115;BME280;5097;43.260;27.812;2023-07-13T07:08:58;100126.31;;;30.52;62.01
10115;BME280;5097;43.260;27.812;2023-07-13T07:11:42;100127.72;;;30.74;61.36
10115;BME280;5097;43.260;27.812;2023-07-13T07:14:44;100131.88;;;30.90;61.30
10115;BME280;5097;43.260;27.812;2023-07-13T07:17:28;100124.09;;;30.87;61.35
10115;BME280;5097;43.260;27.812;2023-07-13T07:20:12;100124.19;;;30.54;62.02
10115;BME280;5097;43.260;27.812;2023-07-13T07:22:56;100125.25;;;30.53;61.58
10115;BME280;5097;43.260;27.812;2023-07-13T07:25:43;100112.97;;;30.89;61.17
10115;BME280;5097;43.260;27.812;2023-07-13T07:28:29;100112.69;;;30.52;62.22
10115;BME280;5097;43.260;27.812;2023-07-13T07:31:24;100116.13;;;30.86;61.06
10115;BME280;5097;43.260;27.812;2023-07-13T07:34:11;100122.06;;;31.28;60.71
10115;BME280;5097;43.260;27.812;2023-07-13T07:36:58;100117.50;;;31.54;59.96
10115;BME280;5097;43.260;27.812;2023-07-13T07:39:45;100121.16;;;31.73;59.34
10115;BME280;5097;43.260;27.812;2023-07-13T07:42:51;100122.09;;;31.60;59.74
10115;BME280;5097;43.260;27.812;2023-07-13T07:45:35;100097.81;;;31.45;60.05
10115;BME280;5097;43.260;27.812;2023-07-13T07:48:19;100101.50;;;31.64;60.00
10115;BME280;5097;43.260;27.812;2023-07-13T07:51:03;100112.69;;;31.81;58.07
10115;BME280;5097;43.260;27.812;2023-07-13T07:53:47;100116.47;;;31.87;57.70
10115;BME280;5097;43.260;27.812;2023-07-13T07:56:32;100113.00;;;31.98;57.66
10115;BME280;5097;43.260;27.812;2023-07-13T07:59:20;100122.72;;;32.19;57.38
10115;BME280;5097;43.260;27.812;2023-07-13T08:02:08;100112.66;;;32.38;57.26
10115;BME280;5097;43.260;27.812;2023-07-13T08:05:13;100123.41;;;32.33;56.56
10115;BME280;5097;43.260;27.812;2023-07-13T08:08:00;100120.00;;;32.56;55.64
10115;BME280;5097;43.260;27.812;2023-07-13T08:10:44;100113.41;;;32.46;54.91
10115;BME280;5097;43.260;27.812;2023-07-13T08:13:28;100115.44;;;32.75;54.87
10115;BME280;5097;43.260;27.812;2023-07-13T08:16:13;100111.50;;;32.71;53.84
10115;BME280;5097;43.260;27.812;2023-07-13T08:18:57;100116.03;;;32.78;53.12
10115;BME280;5097;43.260;27.812;2023-07-13T08:21:41;100109.66;;;32.84;53.35
10115;BME280;5097;43.260;27.812;2023-07-13T08:24:25;100109.88;;;33.01;52.98
10115;BME280;5097;43.260;27.812;2023-07-13T08:27:10;100105.50;;;33.42;51.94
10115;BME280;5097;43.260;27.812;2023-07-13T08:29:54;100106.31;;;33.73;52.28
10115;BME280;5097;43.260;27.812;2023-07-13T08:32:40;100112.63;;;32.82;51.77
10115;BME280;5097;43.260;27.812;2023-07-13T08:35:24;100086.06;;;33.01;51.43
10115;BME280;5097;43.260;27.812;2023-07-13T08:38:09;100077.97;;;33.25;50.77
10115;BME280;5097;43.260;27.812;2023-07-13T08:40:55;100102.53;;;33.44;50.13
10115;BME280;5097;43.260;27.812;2023-07-13T08:43:41;100105.47;;;33.72;50.19
10115;BME280;5097;43.260;27.812;2023-07-13T08:46:30;100094.94;;;33.88;49.75
10115;BME280;5097;43.260;27.812;2023-07-13T08:49:21;100072.09;;;33.64;49.71
10115;BME280;5097;43.260;27.812;2023-07-13T08:52:10;100101.28;;;33.58;49.60
10115;BME280;5097;43.260;27.812;2023-07-13T08:54:58;100095.16;;;33.14;50.02
10115;BME280;5097;43.260;27.812;2023-07-13T08:58:02;100069.25;;;33.58;50.10
10115;BME280;5097;43.260;27.812;2023-07-13T09:00:54;100067.41;;;33.83;47.73
10115;BME280;5097;43.260;27.812;2023-07-13T09:03:46;100089.81;;;34.27;47.01
10115;BME280;5097;43.260;27.812;2023-07-13T09:06:43;100081.63;;;34.39;46.76
10115;BME280;5097;43.260;27.812;2023-07-13T09:09:43;100077.44;;;34.48;47.04
10115;BME280;5097;43.260;27.812;2023-07-13T09:12:38;100089.63;;;34.93;46.49
10115;BME280;5097;43.260;27.812;2023-07-13T09:15:27;100063.22;;;34.51;46.93
10115;BME280;5097;43.260;27.812;2023-07-13T09:18:16;100087.59;;;35.17;45.97
10115;BME280;5097;43.260;27.812;2023-07-13T09:21:04;100057.84;;;35.26;45.09
10115;BME280;5097;43.260;27.812;2023-07-13T09:23:54;100069.59;;;35.10;44.96
10115;BME280;5097;43.260;27.812;2023-07-13T09:26:40;100057.25;;;35.24;45.11
10115;BME280;5097;43.260;27.812;2023-07-13T09:29:28;100087.22;;;35.71;43.20
10115;BME280;5097;43.260;27.812;2023-07-13T09:32:14;100072.53;;;35.66;43.31
10115;BME280;5097;43.260;27.812;2023-07-13T09:35:09;100061.25;;;35.62;43.35
10115;BME280;5097;43.260;27.812;2023-07-13T09:37:59;100075.31;;;35.83;43.00
10115;BME280;5097;43.260;27.812;2023-07-13T09:41:08;100092.00;;;36.32;42.52
10115;BME280;5097;43.260;27.812;2023-07-13T09:44:11;100073.84;;;36.31;41.59
10115;BME280;5097;43.260;27.812;2023-07-13T09:46:55;100054.38;;;36.16;41.39
10115;BME280;5097;43.260;27.812;2023-07-13T09:49:40;100066.13;;;36.50;41.64
10115;BME280;5097;43.260;27.812;2023-07-13T09:52:27;100053.97;;;36.46;41.76
10115;BME280;5097;43.260;27.812;2023-07-13T09:55:25;100046.78;;;36.40;41.31
10115;BME280;5097;43.260;27.812;2023-07-13T09:58:13;100045.63;;;36.36;41.70
10115;BME280;5097;43.260;27.812;2023-07-13T10:00:59;100061.38;;;36.68;40.43
10115;BME280;5097;43.260;27.812;2023-07-13T10:03:53;100048.94;;;36.21;41.30
10115;BME280;5097;43.260;27.812;2023-07-13T10:06:38;100059.19;;;36.26;41.54
10115;BME280;5097;43.260;27.812;2023-07-13T10:09:23;100055.66;;;36.30;41.29
10115;BME280;5097;43.260;27.812;2023-07-13T10:12:14;100052.13;;;36.96;40.12
10115;BME280;5097;43.260;27.812;2023-07-13T10:15:00;100044.19;;;36.78;39.66
10115;BME280;5097;43.260;27.812;2023-07-13T10:18:08;100040.03;;;36.53;39.81
10115;BME280;5097;43.260;27.812;2023-07-13T10:21:07;100039.72;;;36.71;39.01
10115;BME280;5097;43.260;27.812;2023-07-13T10:24:16;100030.19;;;36.57;39.02
10115;BME280;5097;43.260;27.812;2023-07-13T10:27:09;100017.47;;;36.51;39.56
10115;BME280;5097;43.260;27.812;2023-07-13T10:30:00;100023.34;;;35.64;41.48
10115;BME280;5097;43.260;27.812;2023-07-13T10:32:46;100032.41;;;36.16;40.32
10115;BME280;5097;43.260;27.812;2023-07-13T10:35:31;100033.84;;;36.23;39.58
10115;BME280;5097;43.260;27.812;2023-07-13T10:38:19;100025.59;;;36.01;40.25
10115;BME280;5097;43.260;27.812;2023-07-13T10:41:09;100027.44;;;36.18;40.06
10115;BME280;5097;43.260;27.812;2023-07-13T10:43:55;100023.13;;;35.49;40.47
10115;BME280;5097;43.260;27.812;2023-07-13T10:46:43;100027.34;;;35.73;40.66
10115;BME280;5097;43.260;27.812;2023-07-13T10:49:29;100019.19;;;35.79;41.41
10115;BME280;5097;43.260;27.812;2023-07-13T10:52:40;100030.28;;;35.84;40.74
10115;BME280;5097;43.260;27.812;2023-07-13T10:55:32;100019.13;;;36.13;39.54
10115;BME280;5097;43.260;27.812;2023-07-13T10:58:24;100018.50;;;36.05;40.50
10115;BME280;5097;43.260;27.812;2023-07-13T11:01:14;100017.63;;;35.49;40.05
10115;BME280;5097;43.260;27.812;2023-07-13T11:04:02;100016.31;;;36.07;39.71
10115;BME280;5097;43.260;27.812;2023-07-13T11:06:48;100016.44;;;35.79;40.16
10115;BME280;5097;43.260;27.812;2023-07-13T11:09:36;100022.19;;;36.33;39.08
10115;BME280;5097;43.260;27.812;2023-07-13T11:12:49;100019.34;;;36.28;38.76
10115;BME280;5097;43.260;27.812;2023-07-13T11:15:48;100006.97;;;35.86;38.91
10115;BME280;5097;43.260;27.812;2023-07-13T11:18:32;100019.06;;;36.07;39.23
10115;BME280;5097;43.260;27.812;2023-07-13T11:21:19;100031.59;;;36.82;36.80
10115;BME280;5097;43.260;27.812;2023-07-13T11:24:16;100027.03;;;36.70;36.97
10115;BME280;5097;43.260;27.812;2023-07-13T11:27:21;99987.88;;;36.63;36.80
10115;BME280;5097;43.260;27.812;2023-07-13T11:30:24;100024.03;;;36.50;37.19
10115;BME280;5097;43.260;27.812;2023-07-13T11:33:13;100020.91;;;36.63;37.75
10115;BME280;5097;43.260;27.812;2023-07-13T11:36:02;100035.06;;;36.11;37.15
10115;BME280;5097;43.260;27.812;2023-07-13T11:38:57;100029.34;;;36.34;38.01
10115;BME280;5097;43.260;27.812;2023-07-13T11:41:44;100014.16;;;36.98;36.35
10115;BME280;5097;43.260;27.812;2023-07-13T11:44:30;100025.91;;;36.44;37.23
10115;BME280;5097;43.260;27.812;2023-07-13T11:47:18;100023.13;;;36.66;37.39
10115;BME280;5097;43.260;27.812;2023-07-13T11:50:04;100022.72;;;36.80;37.80
10115;BME280;5097;43.260;27.812;2023-07-13T11:52:51;100006.88;;;36.20;38.18
10115;BME280;5097;43.260;27.812;2023-07-13T11:55:38;100005.22;;;36.64;37.68
10115;BME280;5097;43.260;27.812;2023-07-13T11:58:24;100008.88;;;37.24;36.94
10115;BME280;5097;43.260;27.812;2023-07-13T12:01:18;99994.50;;;37.17;37.03
10115;BME280;5097;43.260;27.812;2023-07-13T12:04:04;100008.34;;;36.28;37.40
10115;BME280;5097;43.260;27.812;2023-07-13T12:06:55;100008.84;;;37.19;36.48
10115;BME280;5097;43.260;27.812;2023-07-13T12:09:41;100009.66;;;37.47;36.42
10115;BME280;5097;43.260;27.812;2023-07-13T12:12:29;99992.78;;;36.56;37.33
10115;BME280;5097;43.260;27.812;2023-07-13T12:15:14;100010.44;;;36.21;37.53
10115;BME280;5097;43.260;27.812;2023-07-13T12:17:58;100007.84;;;35.92;38.67
10115;BME280;5097;43.260;27.812;2023-07-13T12:20:43;100017.28;;;36.57;37.76
10115;BME280;5097;43.260;27.812;2023-07-13T12:23:31;99988.66;;;35.58;38.63
10115;BME280;5097;43.260;27.812;2023-07-13T12:26:17;100004.53;;;36.29;38.67
10115;BME280;5097;43.260;27.812;2023-07-13T12:29:06;99998.13;;;37.22;36.76
10115;BME280;5097;43.260;27.812;2023-07-13T12:31:50;99972.91;;;36.10;37.96
10115;BME280;5097;43.260;27.812;2023-07-13T12:34:51;99966.69;;;35.41;38.54
10115;BME280;5097;43.260;27.812;2023-07-13T12:37:36;99990.78;;;35.90;38.93
10115;BME280;5097;43.260;27.812;2023-07-13T12:40:21;99975.59;;;36.04;38.41
10115;BME280;5097;43.260;27.812;2023-07-13T12:43:11;99985.94;;;35.12;39.60
10115;BME280;5097;43.260;27.812;2023-07-13T12:46:00;99976.72;;;35.69;39.03
10115;BME280;5097;43.260;27.812;2023-07-13T12:48:48;99974.66;;;36.16;37.71
10115;BME280;5097;43.260;27.812;2023-07-13T12:51:50;99974.66;;;36.38;36.86
10115;BME280;5097;43.260;27.812;2023-07-13T12:54:34;99986.94;;;36.52;36.38
10115;BME280;5097;43.260;27.812;2023-07-13T12:57:18;99973.31;;;36.18;36.72
10115;BME280;5097;43.260;27.812;2023-07-13T13:00:03;99959.78;;;36.17;36.53
10115;BME280;5097;43.260;27.812;2023-07-13T13:02:50;99959.72;;;35.72;37.07
10115;BME280;5097;43.260;27.812;2023-07-13T13:05:34;99934.84;;;34.94;38.09
10115;BME280;5097;43.260;27.812;2023-07-13T13:08:20;99967.63;;;35.86;36.82
10115;BME280;5097;43.260;27.812;2023-07-13T13:11:04;99965.22;;;35.72;38.19
10115;BME280;5097;43.260;27.812;2023-07-13T13:13:48;99953.25;;;35.62;36.93
10115;BME280;5097;43.260;27.812;2023-07-13T13:16:34;99948.25;;;35.58;37.65
10115;BME280;5097;43.260;27.812;2023-07-13T13:19:23;99948.88;;;36.22;36.14
10115;BME280;5097;43.260;27.812;2023-07-13T13:22:08;99953.41;;;36.55;34.92
10115;BME280;5097;43.260;27.812;2023-07-13T13:24:51;99965.75;;;36.31;35.17
10115;BME280;5097;43.260;27.812;2023-07-13T13:27:35;99968.09;;;36.22;35.09
10115;BME280;5097;43.260;27.812;2023-07-13T13:30:19;99939.16;;;36.36;34.89
10115;BME280;5097;43.260;27.812;2023-07-13T13:33:08;99923.59;;;36.74;34.92
10115;BME280;5097;43.260;27.812;2023-07-13T13:35:54;99946.41;;;36.43;35.34
10115;BME280;5097;43.260;27.812;2023-07-13T13:38:38;99930.56;;;35.88;35.59
10115;BME280;5097;43.260;27.812;2023-07-13T13:41:22;99940.81;;;35.93;36.21
10115;BME280;5097;43.260;27.812;2023-07-13T13:44:09;99912.91;;;36.78;34.56
10115;BME280;5097;43.260;27.812;2023-07-13T13:46:54;99930.03;;;36.58;33.87
10115;BME280;5097;43.260;27.812;2023-07-13T13:49:39;99939.41;;;37.17;33.40
10115;BME280;5097;43.260;27.812;2023-07-13T13:52:25;99938.69;;;36.94;33.84
10115;BME280;5097;43.260;27.812;2023-07-13T13:55:13;99941.91;;;37.99;32.65
10115;BME280;5097;43.260;27.812;2023-07-13T13:57:57;99937.88;;;38.17;30.94
10115;BME280;5097;43.260;27.812;2023-07-13T14:00:41;99943.97;;;37.76;31.42
10115;BME280;5097;43.260;27.812;2023-07-13T14:03:28;99945.38;;;37.36;32.58
10115;BME280;5097;43.260;27.812;2023-07-13T14:06:12;99943.84;;;36.85;33.22
10115;BME280;5097;43.260;27.812;2023-07-13T14:08:59;99915.94;;;36.27;33.78
10115;BME280;5097;43.260;27.812;2023-07-13T14:11:44;99934.22;;;36.88;33.97
10115;BME280;5097;43.260;27.812;2023-07-13T14:14:32;99932.06;;;37.65;33.12
10115;BME280;5097;43.260;27.812;2023-07-13T14:17:20;99937.97;;;38.37;32.36
10115;BME280;5097;43.260;27.812;2023-07-13T14:20:10;99930.13;;;38.09;32.82
10115;BME280;5097;43.260;27.812;2023-07-13T14:22:54;99933.28;;;37.04;33.52
10115;BME280;5097;43.260;27.812;2023-07-13T14:25:40;99929.97;;;37.78;32.47
10115;BME280;5097;43.260;27.812;2023-07-13T14:28:26;99935.72;;;37.76;31.50
10115;BME280;5097;43.260;27.812;2023-07-13T14:31:12;99936.56;;;37.06;32.81
10115;BME280;5097;43.260;27.812;2023-07-13T14:33:57;99932.44;;;36.77;33.52
10115;BME280;5097;43.260;27.812;2023-07-13T14:36:42;99937.97;;;37.36;33.32